Time;durP1;ratioP1;P1;durP2;ratioP2;P2;SDS_P1;SDS_P2;PMS_P1;PMS_P2;Temp;Humidity;BMP_temperature;BMP_pressure;BME280_temperature;BME280_humidity;BME280_pressure;Samples;Min_cycle;Max_cycle;Signal;HPM_P1;HPM_P2
2022/07/27 00:01:32;;;;;;;1.75;0.70;;;15.90;95.50;;;;;;4954929;28;20222;-89
2022/07/27 00:03:58;;;;;;;3.13;1.20;;;15.90;95.60;;;;;;4954049;29;20268;-89
2022/07/27 00:06:24;;;;;;;2.65;1.00;;;15.80;95.90;;;;;;4953408;29;20721;-89
2022/07/27 00:08:49;;;;;;;2.85;0.95;;;15.80;95.90;;;;;;4953222;29;20636;-89
2022/07/27 00:11:15;;;;;;;2.10;1.10;;;15.80;95.90;;;;;;4953705;29;20189;-89
2022/07/27 00:13:41;;;;;;;3.88;0.70;;;15.70;96.20;;;;;;4954868;29;20244;-90
2022/07/27 00:16:07;;;;;;;3.30;0.85;;;15.60;96.30;;;;;;4953476;28;20198;-90
2022/07/27 00:18:33;;;;;;;3.58;0.98;;;15.60;96.70;;;;;;4953188;29;20260;-89
2022/07/27 00:20:58;;;;;;;1.48;0.80;;;15.50;96.80;;;;;;4953504;29;20283;-90
2022/07/27 00:23:24;;;;;;;2.58;0.80;;;15.40;96.90;;;;;;4970604;28;20199;-89
2022/07/27 00:25:50;;;;;;;3.60;1.15;;;15.40;97.10;;;;;;4959139;28;20193;-89
2022/07/27 00:28:19;;;;;;;5.25;1.05;;;15.30;97.20;;;;;;4953372;29;20221;-89
2022/07/27 00:30:45;;;;;;;4.05;1.10;;;15.20;97.50;;;;;;4952734;29;20693;-89
2022/07/27 00:33:11;;;;;;;5.10;1.10;;;15.10;97.60;;;;;;4953285;29;20293;-90
2022/07/27 00:35:37;;;;;;;2.40;0.98;;;15.10;97.70;;;;;;4954026;29;20164;-89
2022/07/27 00:38:03;;;;;;;3.15;1.15;;;15.10;97.90;;;;;;4968929;28;20196;-89
2022/07/27 00:40:31;;;;;;;3.22;0.90;;;15.10;98.00;;;;;;4958472;28;20191;-89
2022/07/27 00:42:57;;;;;;;4.53;0.82;;;15.00;98.10;;;;;;4954540;29;20165;-89
2022/07/27 00:45:23;;;;;;;2.83;0.85;;;15.00;98.10;;;;;;4953024;29;20180;-89
2022/07/27 00:47:49;;;;;;;2.25;1.15;;;14.90;98.30;;;;;;4967774;28;20232;-89
2022/07/27 00:50:16;;;;;;;3.72;0.90;;;14.90;98.20;;;;;;4973501;28;20220;-89
2022/07/27 00:52:41;;;;;;;3.38;0.70;;;14.90;98.30;;;;;;4957042;28;20173;-89
2022/07/27 00:55:08;;;;;;;2.83;0.82;;;14.90;98.40;;;;;;4953292;29;20184;-89
2022/07/27 00:57:34;;;;;;;2.08;0.65;;;14.90;98.40;;;;;;4952853;29;20564;-89
2022/07/27 01:00:00;;;;;;;3.65;0.70;;;14.90;98.40;;;;;;4961554;28;20181;-90
2022/07/27 01:02:25;;;;;;;2.13;0.77;;;14.90;98.40;;;;;;4952778;29;20292;-90
2022/07/27 01:04:51;;;;;;;1.15;0.73;;;15.00;98.60;;;;;;4953677;28;20180;-88
2022/07/27 01:07:17;;;;;;;3.35;1.00;;;14.90;98.60;;;;;;5396918;23;20236;-87
2022/07/27 01:09:56;;;;;;;2.38;0.98;;;14.90;98.80;;;;;;4973462;28;20228;-87
2022/07/27 01:12:23;;;;;;;2.78;0.90;;;14.90;98.90;;;;;;4958404;28;20173;-86
2022/07/27 01:14:50;;;;;;;4.93;1.20;;;14.80;99.20;;;;;;4958992;29;20173;-87
2022/07/27 01:17:17;;;;;;;2.20;0.65;;;14.70;99.20;;;;;;4959026;28;20752;-87
2022/07/27 01:19:44;;;;;;;5.78;1.10;;;14.80;99.40;;;;;;4958751;29;20540;-87
2022/07/27 01:22:10;;;;;;;5.40;1.17;;;14.80;99.30;;;;;;4959762;29;20187;-87
2022/07/27 01:24:36;;;;;;;4.82;1.00;;;14.70;99.20;;;;;;4958848;29;20189;-87
2022/07/27 01:27:03;;;;;;;2.53;0.80;;;14.70;99.30;;;;;;4957827;28;20205;-87
2022/07/27 01:29:31;;;;;;;3.22;0.90;;;14.80;99.40;;;;;;4958168;29;20197;-87
2022/07/27 01:31:58;;;;;;;5.40;1.00;;;14.80;99.40;;;;;;4958689;29;20179;-87
2022/07/27 01:34:24;;;;;;;5.68;1.20;;;14.80;99.60;;;;;;4957890;29;20659;-87
2022/07/27 01:36:50;;;;;;;2.00;0.90;;;14.80;99.60;;;;;;4958262;28;20308;-88
2022/07/27 01:39:17;;;;;;;2.95;0.80;;;14.80;99.60;;;;;;4958260;28;20193;-87
2022/07/27 01:41:43;;;;;;;1.50;0.70;;;14.80;99.60;;;;;;4957226;28;20264;-87
2022/07/27 01:44:09;;;;;;;3.63;0.90;;;14.80;99.80;;;;;;4958601;28;20173;-87
2022/07/27 01:46:35;;;;;;;5.18;1.13;;;14.80;99.80;;;;;;4954667;28;20601;-87
2022/07/27 01:49:01;;;;;;;4.70;0.88;;;14.70;99.90;;;;;;4959353;28;20594;-87
2022/07/27 01:51:27;;;;;;;2.88;0.77;;;14.70;99.90;;;;;;4958195;28;20704;-86
2022/07/27 01:53:53;;;;;;;5.05;1.48;;;14.80;99.90;;;;;;4958313;29;20736;-86
2022/07/27 01:56:18;;;;;;;2.90;0.95;;;14.80;99.90;;;;;;4958130;28;20605;-87
2022/07/27 01:58:45;;;;;;;3.78;1.00;;;14.70;99.90;;;;;;4957700;28;20194;-87
2022/07/27 02:01:10;;;;;;;3.55;0.90;;;14.70;99.90;;;;;;4957708;28;20200;-88
2022/07/27 02:03:36;;;;;;;5.00;0.95;;;14.70;99.90;;;;;;4958424;28;20185;-87
2022/07/27 02:06:03;;;;;;;2.95;0.77;;;14.70;99.90;;;;;;4958092;29;20169;-87
2022/07/27 02:08:29;;;;;;;4.78;1.42;;;14.70;99.90;;;;;;4944554;28;20232;-87
2022/07/27 02:13:43;;;;;;;3.65;1.10;;;14.60;99.90;;;;;;4960001;28;20176;-87
2022/07/27 02:16:09;;;;;;;3.03;1.00;;;14.60;99.90;;;;;;4976752;28;20588;-87
2022/07/27 02:18:35;;;;;;;3.20;1.10;;;14.50;99.90;;;;;;4973315;28;20169;-87
2022/07/27 02:21:00;;;;;;;2.25;0.73;;;14.50;99.90;;;;;;4958468;29;20201;-87
2022/07/27 02:23:26;;;;;;;2.25;0.88;;;14.50;99.90;;;;;;4956602;29;20213;-88
2022/07/27 02:25:52;;;;;;;3.83;0.90;;;14.50;99.90;;;;;;4956511;28;20532;-87
2022/07/27 02:28:19;;;;;;;1.35;0.70;;;14.40;99.90;;;;;;4955588;29;20224;-87
2022/07/27 02:30:45;;;;;;;3.88;0.80;;;14.40;99.90;;;;;;4956726;29;20201;-88
2022/07/27 02:33:11;;;;;;;2.97;0.90;;;14.30;99.90;;;;;;4955302;29;20184;-87
2022/07/27 02:35:37;;;;;;;3.67;0.80;;;14.30;99.90;;;;;;4954628;29;20260;-87
2022/07/27 02:38:02;;;;;;;2.33;0.70;;;14.20;99.90;;;;;;4954715;28;20221;-88
2022/07/27 02:40:29;;;;;;;1.40;0.60;;;14.20;99.90;;;;;;4954100;29;20188;-87
2022/07/27 02:42:55;;;;;;;2.55;0.90;;;14.20;99.90;;;;;;4965430;28;20200;-88
2022/07/27 02:45:20;;;;;;;2.05;0.55;;;14.10;99.90;;;;;;4949395;28;20218;-87
2022/07/27 02:47:46;;;;;;;2.75;1.10;;;14.10;99.90;;;;;;4948512;29;20220;-88
2022/07/27 02:50:12;;;;;;;1.73;0.80;;;14.00;99.90;;;;;;4954222;29;20256;-88
2022/07/27 02:52:38;;;;;;;3.00;1.00;;;14.00;99.90;;;;;;4954444;29;20641;-87
2022/07/27 02:55:05;;;;;;;5.03;1.08;;;14.00;99.90;;;;;;4953976;29;20213;-87
2022/07/27 02:57:33;;;;;;;3.10;0.93;;;14.00;99.90;;;;;;4953770;28;20264;-87
2022/07/27 02:59:59;;;;;;;2.60;0.90;;;14.00;99.90;;;;;;4953631;29;20200;-87
2022/07/27 03:02:25;;;;;;;1.48;0.65;;;13.90;99.90;;;;;;4955492;29;20181;-88
2022/07/27 03:04:50;;;;;;;3.97;1.00;;;13.80;99.90;;;;;;4955258;29;20175;-87
2022/07/27 03:07:16;;;;;;;2.63;0.88;;;13.80;99.90;;;;;;4947233;28;20303;-87
2022/07/27 03:09:42;;;;;;;2.33;0.70;;;13.80;99.90;;;;;;4934794;29;20233;-87
2022/07/27 03:12:08;;;;;;;5.03;1.00;;;13.80;99.90;;;;;;4934911;29;20182;-87
2022/07/27 03:14:33;;;;;;;1.27;0.85;;;13.80;99.90;;;;;;4935225;29;20174;-87
2022/07/27 03:16:59;;;;;;;2.30;0.85;;;13.70;99.90;;;;;;4934741;29;20256;-87
2022/07/27 03:19:25;;;;;;;5.97;1.65;;;13.70;99.90;;;;;;4934401;29;20193;-88
2022/07/27 03:21:51;;;;;;;4.85;0.95;;;13.60;99.90;;;;;;4935000;29;20181;-87
2022/07/27 03:24:17;;;;;;;5.03;0.95;;;13.60;99.90;;;;;;4934411;29;20267;-87
2022/07/27 03:26:42;;;;;;;2.63;0.80;;;13.60;99.90;;;;;;4934285;29;20692;-88
2022/07/27 03:29:08;;;;;;;3.33;0.80;;;13.60;99.90;;;;;;4933893;29;20198;-87
2022/07/27 03:31:34;;;;;;;8.00;1.13;;;13.60;99.90;;;;;;4931804;29;20585;-87
2022/07/27 03:34:00;;;;;;;5.20;1.00;;;13.60;99.90;;;;;;4932826;29;20174;-87
2022/07/27 03:36:25;;;;;;;2.22;0.80;;;13.60;99.90;;;;;;4934431;29;20718;-87
2022/07/27 03:38:52;;;;;;;5.65;0.90;;;13.60;99.90;;;;;;4934559;29;20177;-88
2022/07/27 03:41:18;;;;;;;1.75;1.02;;;13.60;99.90;;;;;;4932398;29;20618;-87
2022/07/27 03:43:44;;;;;;;1.95;0.80;;;13.60;99.90;;;;;;4916383;29;20194;-87
2022/07/27 03:46:11;;;;;;;3.20;0.63;;;13.50;99.90;;;;;;4914839;29;20198;-87
2022/07/27 03:48:38;;;;;;;3.88;0.95;;;13.50;99.90;;;;;;4915691;29;20698;-87
2022/07/27 03:51:04;;;;;;;3.28;0.88;;;13.50;99.90;;;;;;4915638;29;20203;-87
2022/07/27 03:53:30;;;;;;;3.78;0.77;;;13.50;99.90;;;;;;4915666;29;20171;-88
2022/07/27 03:55:56;;;;;;;3.40;0.80;;;13.50;99.90;;;;;;4930520;29;20701;-88
2022/07/27 03:58:23;;;;;;;3.33;0.90;;;13.50;99.90;;;;;;4934744;29;20263;-88
2022/07/27 04:00:49;;;;;;;2.28;0.73;;;13.50;99.90;;;;;;4933767;29;20181;-87
2022/07/27 04:03:16;;;;;;;1.75;0.85;;;13.50;99.90;;;;;;4934291;29;20201;-87
2022/07/27 04:05:42;;;;;;;3.08;0.70;;;13.50;99.90;;;;;;4933514;29;20193;-87
2022/07/27 04:08:08;;;;;;;3.65;1.13;;;13.50;99.90;;;;;;4933582;29;20330;-87
2022/07/27 04:10:34;;;;;;;2.67;0.88;;;13.50;99.90;;;;;;4933581;29;20208;-87
2022/07/27 04:13:00;;;;;;;4.60;1.00;;;13.50;99.90;;;;;;4933811;29;20197;-87
2022/07/27 04:15:26;;;;;;;2.72;0.82;;;13.70;99.90;;;;;;4933527;29;20178;-87
2022/07/27 04:17:52;;;;;;;2.92;1.02;;;13.70;99.90;;;;;;4934950;29;20209;-87
2022/07/27 04:20:18;;;;;;;3.15;1.15;;;13.70;99.90;;;;;;4934199;29;20660;-87
2022/07/27 04:22:44;;;;;;;1.42;0.75;;;13.80;99.90;;;;;;4933983;29;20228;-88
2022/07/27 04:25:10;;;;;;;3.35;0.95;;;13.80;99.90;;;;;;4926211;29;20666;-88
2022/07/27 04:27:36;;;;;;;7.47;1.63;;;13.90;99.90;;;;;;4922937;29;20628;-88
2022/07/27 04:30:04;;;;;;;3.22;0.93;;;14.00;99.90;;;;;;4934322;29;20229;-89
2022/07/27 04:32:29;;;;;;;3.83;0.63;;;14.10;99.90;;;;;;4933649;29;20273;-88
2022/07/27 04:34:55;;;;;;;3.85;1.05;;;14.10;99.90;;;;;;4933650;29;20261;-89
2022/07/27 04:37:21;;;;;;;4.55;1.10;;;14.20;99.90;;;;;;4933705;29;20296;-88
2022/07/27 04:39:47;;;;;;;6.95;0.95;;;14.30;99.90;;;;;;4933113;29;20233;-89
2022/07/27 04:42:12;;;;;;;4.50;0.98;;;14.30;99.90;;;;;;4933296;29;20178;-90
2022/07/27 04:44:38;;;;;;;7.68;1.08;;;14.40;99.90;;;;;;4933420;29;20709;-90
2022/07/27 04:47:04;;;;;;;3.17;0.90;;;14.50;99.90;;;;;;4933054;29;20244;-89
2022/07/27 04:49:29;;;;;;;5.03;0.90;;;14.50;99.90;;;;;;4933312;29;20301;-89
2022/07/27 04:51:55;;;;;;;3.22;0.90;;;14.50;99.90;;;;;;4933786;29;20182;-88
2022/07/27 04:54:21;;;;;;;2.45;1.00;;;14.60;99.90;;;;;;4934899;29;20168;-88
2022/07/27 04:56:50;;;;;;;4.53;1.02;;;14.70;99.90;;;;;;4922373;29;20214;-89
2022/07/27 04:59:16;;;;;;;5.10;0.93;;;14.80;99.90;;;;;;4914723;29;20189;-89
2022/07/27 05:01:42;;;;;;;3.33;1.00;;;14.90;99.90;;;;;;4927596;29;20190;-90
2022/07/27 05:04:07;;;;;;;4.13;0.70;;;15.00;99.90;;;;;;4934620;29;20225;-89
2022/07/27 05:06:33;;;;;;;3.28;0.90;;;15.10;99.90;;;;;;4934509;28;20293;-90
2022/07/27 05:08:59;;;;;;;3.83;0.95;;;15.10;99.90;;;;;;4956293;28;20267;-89
2022/07/27 05:11:25;;;;;;;2.08;0.70;;;15.20;99.90;;;;;;4955391;28;20242;-89
2022/07/27 05:13:50;;;;;;;4.68;0.98;;;15.20;99.90;;;;;;4955897;28;20204;-89
2022/07/27 05:16:16;;;;;;;3.40;0.80;;;15.20;99.90;;;;;;4955749;28;20201;-88
2022/07/27 05:18:45;;;;;;;1.95;0.90;;;15.10;99.90;;;;;;4955748;28;20625;-89
2022/07/27 05:21:11;;;;;;;5.28;0.90;;;15.20;99.90;;;;;;4955598;28;20256;-89
2022/07/27 05:23:37;;;;;;;1.52;0.80;;;15.20;99.90;;;;;;4955151;28;20177;-90
2022/07/27 05:26:03;;;;;;;4.30;0.90;;;15.20;99.90;;;;;;4952730;28;20207;-89
2022/07/27 05:28:29;;;;;;;4.75;1.13;;;15.20;99.90;;;;;;4955442;28;20207;-89
2022/07/27 05:30:56;;;;;;;5.10;1.13;;;15.20;99.90;;;;;;4955573;28;20247;-89
2022/07/27 05:33:21;;;;;;;1.63;0.85;;;15.20;99.90;;;;;;4956193;28;20165;-88
2022/07/27 05:35:47;;;;;;;5.22;1.23;;;15.30;99.90;;;;;;4945701;28;20189;-90
2022/07/27 05:38:13;;;;;;;1.13;0.68;;;15.30;99.90;;;;;;4935902;29;20173;-90
2022/07/27 05:40:40;;;;;;;3.47;1.15;;;15.30;99.90;;;;;;4939373;28;20203;-89
2022/07/27 05:43:05;;;;;;;2.05;0.70;;;15.30;99.90;;;;;;4955125;28;20538;-89
2022/07/27 05:45:31;;;;;;;4.72;1.10;;;15.30;99.90;;;;;;4955079;28;20165;-89
2022/07/27 05:47:58;;;;;;;2.55;1.08;;;15.30;99.90;;;;;;4972344;28;20204;-89
2022/07/27 05:50:24;;;;;;;2.83;1.00;;;15.30;99.90;;;;;;4955177;28;20196;-89
2022/07/27 05:52:50;;;;;;;2.10;0.85;;;15.40;99.90;;;;;;4955009;28;20257;-89
2022/07/27 05:55:16;;;;;;;5.75;0.98;;;15.40;99.90;;;;;;4948598;28;20279;-89
2022/07/27 05:57:42;;;;;;;2.55;0.80;;;15.50;99.90;;;;;;4958637;28;20645;-90
2022/07/27 06:00:09;;;;;;;3.33;0.65;;;15.40;99.90;;;;;;4958730;28;20179;-89
2022/07/27 06:02:35;;;;;;;4.32;0.90;;;15.50;99.90;;;;;;4942400;28;20216;-89
2022/07/27 06:05:01;;;;;;;3.80;0.90;;;15.50;99.90;;;;;;4958557;28;20600;-89
2022/07/27 06:10:11;;;;;;;3.20;1.30;;;15.40;99.90;;;;;;4955670;29;20204;-90
2022/07/27 06:12:42;;;;;;;3.40;0.98;;;15.40;99.90;;;;;;4954491;29;20201;-88
2022/07/27 06:15:09;;;;;;;3.35;1.10;;;15.40;99.90;;;;;;4951697;28;20198;-89
2022/07/27 06:17:35;;;;;;;3.63;0.80;;;15.50;99.90;;;;;;4955030;29;20209;-89
2022/07/27 06:20:03;;;;;;;4.43;1.30;;;15.60;99.90;;;;;;4954775;29;20209;-88
2022/07/27 06:22:45;;;;;;;3.00;0.88;;;15.70;99.90;;;;;;4954932;29;20264;-89
2022/07/27 06:25:11;;;;;;;6.25;1.08;;;15.70;99.90;;;;;;4954673;28;20185;-89
2022/07/27 06:27:37;;;;;;;3.67;0.75;;;15.80;99.90;;;;;;4955185;28;20208;-88
2022/07/27 06:30:04;;;;;;;2.50;0.90;;;15.90;99.80;;;;;;4939019;29;20186;-89
2022/07/27 06:32:30;;;;;;;5.70;1.02;;;15.80;99.70;;;;;;4951397;29;20185;-89
2022/07/27 06:34:56;;;;;;;3.90;0.80;;;15.90;99.80;;;;;;4955554;29;20182;-89
2022/07/27 06:37:22;;;;;;;7.68;1.25;;;15.90;99.60;;;;;;4955334;29;20220;-89
2022/07/27 06:39:47;;;;;;;3.13;0.95;;;16.00;98.60;;;;;;4955360;29;20202;-89
2022/07/27 06:42:14;;;;;;;3.88;0.75;;;16.10;98.40;;;;;;4949622;28;20620;-88
2022/07/27 06:44:40;;;;;;;3.90;1.00;;;16.20;98.80;;;;;;4935902;29;20261;-89
2022/07/27 06:47:06;;;;;;;5.50;0.95;;;16.20;98.50;;;;;;4935981;29;20297;-90
2022/07/27 06:49:32;;;;;;;3.72;0.88;;;16.20;98.10;;;;;;4920568;29;20252;-89
2022/07/27 06:51:58;;;;;;;3.90;0.73;;;16.30;98.20;;;;;;4946130;29;20178;-90
2022/07/27 06:54:24;;;;;;;2.67;1.00;;;16.30;98.80;;;;;;4954926;29;20183;-89
2022/07/27 06:56:50;;;;;;;3.55;1.00;;;16.40;98.40;;;;;;4938034;28;20688;-89
2022/07/27 06:59:16;;;;;;;7.80;0.90;;;16.50;97.90;;;;;;4935465;29;20214;-89
2022/07/27 07:01:42;;;;;;;4.78;0.70;;;16.60;97.90;;;;;;4943411;29;20212;-89
2022/07/27 07:04:09;;;;;;;4.55;0.70;;;16.60;97.30;;;;;;4954020;28;20268;-90
2022/07/27 07:06:34;;;;;;;5.55;0.63;;;16.70;97.50;;;;;;4955115;28;20293;-89
2022/07/27 07:09:02;;;;;;;3.05;0.77;;;16.80;97.30;;;;;;4958226;28;20280;-88
2022/07/27 07:11:28;;;;;;;2.95;0.60;;;17.00;97.10;;;;;;4958111;28;20172;-89
2022/07/27 07:13:54;;;;;;;4.18;0.98;;;17.10;95.40;;;;;;4957601;28;20235;-89
2022/07/27 07:16:20;;;;;;;3.33;1.10;;;17.20;95.60;;;;;;4951410;28;20675;-89
2022/07/27 07:18:46;;;;;;;3.58;0.82;;;17.20;95.50;;;;;;4952894;28;20188;-89
2022/07/27 07:21:11;;;;;;;3.78;0.82;;;17.30;95.20;;;;;;4957918;28;20201;-90
2022/07/27 07:23:37;;;;;;;3.10;0.95;;;17.40;95.00;;;;;;4958306;28;20659;-89
2022/07/27 07:26:03;;;;;;;5.60;0.70;;;17.40;95.40;;;;;;4942204;29;20185;-89
2022/07/27 07:28:30;;;;;;;5.03;0.80;;;17.40;95.30;;;;;;4938478;29;20613;-89
2022/07/27 07:30:56;;;;;;;4.50;1.00;;;17.50;95.60;;;;;;4938375;29;20178;-89
2022/07/27 07:33:23;;;;;;;3.85;1.00;;;17.70;95.30;;;;;;4938152;29;20188;-90
2022/07/27 07:35:49;;;;;;;4.90;0.85;;;17.60;94.40;;;;;;4937853;29;20184;-89
2022/07/27 07:38:16;;;;;;;1.40;0.60;;;17.70;94.40;;;;;;4947504;28;20565;-89
2022/07/27 07:40:41;;;;;;;3.70;0.90;;;17.80;93.80;;;;;;4957023;28;20238;-89
2022/07/27 07:43:07;;;;;;;4.63;0.98;;;17.90;93.80;;;;;;4957248;28;20604;-89
2022/07/27 07:45:36;;;;;;;3.58;0.70;;;17.80;93.80;;;;;;4957089;28;20198;-90
2022/07/27 07:48:04;;;;;;;2.10;0.70;;;17.70;93.90;;;;;;4956669;28;20275;-89
2022/07/27 07:50:31;;;;;;;1.75;0.80;;;17.60;94.00;;;;;;4956050;28;20188;-89
2022/07/27 07:52:57;;;;;;;3.30;0.63;;;17.50;94.30;;;;;;4974504;28;20180;-89
2022/07/27 07:55:25;;;;;;;2.85;0.90;;;17.40;94.30;;;;;;4974146;28;20271;-90
2022/07/27 07:57:51;;;;;;;3.40;0.90;;;17.40;94.40;;;;;;4972061;28;20295;-90
2022/07/27 08:00:18;;;;;;;3.80;0.70;;;17.40;94.80;;;;;;4943766;28;20201;-90
2022/07/27 08:02:56;;;;;;;2.20;0.65;;;17.30;93.10;;;;;;4956438;28;20177;-89
2022/07/27 08:05:23;;;;;;;4.18;1.05;;;17.20;93.80;;;;;;4956772;28;20176;-88
2022/07/27 08:07:52;;;;;;;1.95;0.55;;;17.20;94.00;;;;;;4952989;28;20773;-89
2022/07/27 08:10:26;;;;;;;2.80;0.90;;;17.50;94.70;;;;;;4954558;29;20181;-90
2022/07/27 08:12:54;;;;;;;5.18;1.10;;;17.80;93.70;;;;;;4954000;29;20212;-89
2022/07/27 08:15:22;;;;;;;2.28;0.60;;;18.00;93.50;;;;;;4953098;28;20183;-89
2022/07/27 08:17:48;;;;;;;4.55;0.90;;;18.00;93.50;;;;;;4953797;28;20213;-89
2022/07/27 08:20:15;;;;;;;3.92;0.93;;;18.00;93.20;;;;;;4953748;29;20276;-88
2022/07/27 08:22:43;;;;;;;7.85;0.90;;;17.80;93.20;;;;;;4953467;28;20322;-89
2022/07/27 08:25:10;;;;;;;6.28;0.70;;;17.70;92.50;;;;;;4945948;29;20198;-89
2022/07/27 08:27:36;;;;;;;2.63;0.75;;;17.60;93.50;;;;;;4933924;29;20339;-89
2022/07/27 08:30:03;;;;;;;3.53;0.80;;;17.90;93.10;;;;;;4934257;29;20184;-89
2022/07/27 08:32:29;;;;;;;3.28;0.63;;;18.30;92.40;;;;;;4949872;29;20173;-88
2022/07/27 08:34:55;;;;;;;5.93;1.00;;;18.60;91.40;;;;;;4953068;29;20170;-89
2022/07/27 08:37:21;;;;;;;4.97;0.88;;;18.90;90.70;;;;;;4953299;28;20711;-90
2022/07/27 08:39:48;;;;;;;3.88;0.68;;;19.00;90.20;;;;;;4953114;29;20236;-89
2022/07/27 08:42:16;;;;;;;3.95;0.70;;;19.10;90.00;;;;;;4953299;29;20261;-90
2022/07/27 08:44:45;;;;;;;3.25;1.15;;;19.30;90.20;;;;;;4953027;28;20181;-89
2022/07/27 08:47:13;;;;;;;3.30;0.63;;;19.50;88.20;;;;;;4943069;28;20252;-89
2022/07/27 08:49:40;;;;;;;2.10;0.50;;;19.70;89.80;;;;;;4943499;29;20185;-89
2022/07/27 08:52:11;;;;;;;5.05;0.93;;;20.00;87.80;;;;;;4953083;29;20197;-89
2022/07/27 08:54:40;;;;;;;2.22;0.70;;;20.20;85.00;;;;;;4952954;29;20200;-90
2022/07/27 08:57:09;;;;;;;2.25;0.52;;;20.10;86.20;;;;;;4952005;28;20209;-88
2022/07/27 08:59:37;;;;;;;2.50;0.63;;;19.90;85.20;;;;;;4953150;29;20205;-89
2022/07/27 09:02:07;;;;;;;1.70;0.60;;;20.00;84.00;;;;;;4939317;29;20589;-89
2022/07/27 09:04:33;;;;;;;2.22;0.68;;;19.80;86.10;;;;;;4935630;29;20544;-90
2022/07/27 09:06:59;;;;;;;2.05;0.70;;;19.80;87.20;;;;;;4929335;29;20222;-89
2022/07/27 09:09:25;;;;;;;3.00;0.60;;;19.70;85.00;;;;;;4914191;29;20171;-89
2022/07/27 09:12:10;;;;;;;3.38;0.75;;;19.60;85.70;;;;;;4914328;29;20201;-90
2022/07/27 09:14:38;;;;;;;2.72;0.98;;;19.30;84.50;;;;;;4914285;29;20657;-89
2022/07/27 09:17:26;;;;;;;5.57;0.90;;;19.20;85.20;;;;;;4925742;29;20240;-89
2022/07/27 09:19:56;;;;;;;2.63;0.82;;;19.10;88.40;;;;;;4933716;29;20201;-89
2022/07/27 09:22:44;;;;;;;4.93;0.95;;;19.10;89.30;;;;;;4933070;29;20171;-87
2022/07/27 09:25:14;;;;;;;1.55;0.50;;;19.10;87.40;;;;;;4910177;29;20194;-89
2022/07/27 09:27:41;;;;;;;3.65;0.65;;;19.00;88.50;;;;;;4937206;29;20208;-89
2022/07/27 09:30:11;;;;;;;2.63;0.60;;;18.80;90.00;;;;;;4940258;29;20190;-88
2022/07/27 09:32:37;;;;;;;0.88;0.60;;;19.20;87.80;;;;;;4934657;29;20194;-89
2022/07/27 09:35:26;;;;;;;2.08;0.60;;;19.60;88.80;;;;;;4943182;29;20280;-89
2022/07/27 09:37:52;;;;;;;5.55;0.95;;;19.90;87.30;;;;;;4958178;28;20614;-89
2022/07/27 09:40:20;;;;;;;1.17;0.52;;;19.90;86.20;;;;;;4950734;29;20236;-88
2022/07/27 09:43:11;;;;;;;3.40;0.88;;;20.10;85.90;;;;;;4933435;29;20241;-89
2022/07/27 09:45:42;;;;;;;2.67;0.73;;;20.10;84.30;;;;;;4938303;29;20177;-88
2022/07/27 09:48:12;;;;;;;4.63;1.27;;;19.80;86.20;;;;;;4937087;29;20202;-88
2022/07/27 09:50:41;;;;;;;1.15;0.47;;;19.50;87.90;;;;;;4930512;29;20237;-89
2022/07/27 09:53:16;;;;;;;3.45;0.68;;;19.30;87.70;;;;;;4936600;29;20178;-89
2022/07/27 09:55:44;;;;;;;3.63;0.60;;;19.50;87.30;;;;;;4932388;29;20192;-89
2022/07/27 09:58:09;;;;;;;2.67;0.80;;;19.80;86.00;;;;;;4917286;29;20207;-89
2022/07/27 10:00:35;;;;;;;2.75;0.80;;;20.30;86.70;;;;;;4925238;29;20218;-89
2022/07/27 10:03:01;;;;;;;4.07;0.75;;;20.70;83.50;;;;;;4937928;29;20166;-89
2022/07/27 10:05:28;;;;;;;1.80;0.80;;;20.70;83.50;;;;;;4921278;29;20186;-89
2022/07/27 10:07:54;;;;;;;3.10;0.52;;;20.50;83.40;;;;;;4930213;29;20242;-88
2022/07/27 10:10:21;;;;;;;4.20;0.82;;;20.40;82.50;;;;;;4925909;29;20302;-89
2022/07/27 10:12:47;;;;;;;3.38;0.70;;;20.20;82.70;;;;;;4917313;29;21117;-89
2022/07/27 10:15:14;;;;;;;3.63;0.90;;;20.40;84.70;;;;;;4921078;29;20650;-88
2022/07/27 10:17:43;;;;;;;3.53;0.80;;;20.50;82.00;;;;;;4935469;29;20213;-88
2022/07/27 10:20:10;;;;;;;0.73;0.52;;;20.50;83.00;;;;;;4936009;29;20206;-88
2022/07/27 10:23:00;;;;;;;2.03;0.50;;;20.30;81.60;;;;;;4936418;29;20174;-88
2022/07/27 10:25:28;;;;;;;3.45;0.82;;;20.00;81.40;;;;;;4935767;29;20241;-88
2022/07/27 10:28:12;;;;;;;3.45;0.77;;;19.90;82.70;;;;;;4934800;29;20304;-88
2022/07/27 10:30:38;;;;;;;2.78;0.68;;;19.80;81.70;;;;;;4926452;29;20182;-88
2022/07/27 10:33:40;;;;;;;2.20;0.60;;;20.20;82.40;;;;;;4935858;29;20186;-89
2022/07/27 10:36:36;;;;;;;3.50;0.77;;;20.60;81.60;;;;;;4905552;29;20213;-89
2022/07/27 10:39:04;;;;;;;3.35;0.65;;;20.50;79.90;;;;;;4926344;29;20213;-88
2022/07/27 10:41:40;;;;;;;1.35;0.63;;;20.40;80.70;;;;;;4935400;29;20186;-90
2022/07/27 10:44:21;;;;;;;1.33;0.57;;;20.40;82.50;;;;;;4935166;29;20182;-88
2022/07/27 10:46:58;;;;;;;3.25;0.60;;;20.70;81.10;;;;;;4935799;29;20207;-88
2022/07/27 10:49:28;;;;;;;1.50;0.60;;;20.90;80.10;;;;;;4935591;29;20253;-88
2022/07/27 10:51:57;;;;;;;1.55;0.55;;;20.90;81.60;;;;;;4936735;29;20166;-90
2022/07/27 10:54:32;;;;;;;3.15;0.93;;;20.80;79.20;;;;;;4935175;29;20575;-89
2022/07/27 10:57:00;;;;;;;4.53;0.93;;;20.60;80.00;;;;;;4951260;28;20248;-88
2022/07/27 10:59:38;;;;;;;3.85;1.05;;;20.50;82.40;;;;;;4925542;29;20207;-89
2022/07/27 11:02:09;;;;;;;1.55;0.60;;;20.50;81.00;;;;;;4916461;29;20186;-88
2022/07/27 11:04:48;;;;;;;3.13;0.77;;;20.50;81.70;;;;;;4916690;29;20655;-89
2022/07/27 11:07:19;;;;;;;1.20;0.68;;;20.60;82.10;;;;;;4918582;29;20233;-89
2022/07/27 11:09:47;;;;;;;2.55;0.57;;;21.10;82.50;;;;;;4936122;29;20166;-89
2022/07/27 11:12:14;;;;;;;1.42;0.60;;;21.50;81.00;;;;;;4935513;29;20185;-89
2022/07/27 11:14:47;;;;;;;3.13;1.00;;;21.90;80.60;;;;;;4936691;29;20169;-88
2022/07/27 11:17:14;;;;;;;2.40;0.80;;;22.30;79.00;;;;;;4970220;28;20204;-89
2022/07/27 11:19:40;;;;;;;3.25;0.70;;;22.50;80.30;;;;;;4963125;28;20216;-88
2022/07/27 11:22:06;;;;;;;3.85;0.70;;;22.40;76.60;;;;;;4974722;28;20722;-89
2022/07/27 11:24:34;;;;;;;2.33;0.68;;;21.90;78.60;;;;;;4970173;28;20200;-90
2022/07/27 11:27:02;;;;;;;1.92;0.60;;;21.50;79.50;;;;;;4953554;28;20201;-89
2022/07/27 11:29:32;;;;;;;1.52;0.60;;;21.30;78.60;;;;;;4934828;29;20170;-90
2022/07/27 11:31:59;;;;;;;2.05;0.60;;;21.30;78.90;;;;;;4935388;29;20237;-88
2022/07/27 11:34:35;;;;;;;1.65;0.50;;;21.60;77.20;;;;;;4935007;29;20173;-88
2022/07/27 11:37:04;;;;;;;1.88;0.60;;;21.80;77.70;;;;;;4940806;28;20201;-88
2022/07/27 11:39:32;;;;;;;3.20;0.70;;;22.00;75.30;;;;;;4953788;29;20292;-89
2022/07/27 11:42:01;;;;;;;2.67;0.73;;;22.10;74.30;;;;;;4943284;29;20188;-89
2022/07/27 11:44:28;;;;;;;2.33;0.70;;;22.10;75.50;;;;;;4954482;29;20170;-89
2022/07/27 11:46:57;;;;;;;3.67;0.63;;;22.20;75.60;;;;;;4953731;28;20233;-93
2022/07/27 11:49:32;;;;;;;4.63;0.88;;;22.00;76.20;;;;;;4954512;28;20189;-88
2022/07/27 11:52:01;;;;;;;1.50;0.70;;;21.80;78.80;;;;;;4953612;29;20212;-88
2022/07/27 11:54:33;;;;;;;2.40;0.55;;;21.70;78.70;;;;;;4963353;28;20223;-89
2022/07/27 11:57:08;;;;;;;5.47;0.95;;;21.70;79.20;;;;;;4953418;29;20692;-89
2022/07/27 11:59:37;;;;;;;3.38;0.82;;;21.60;79.60;;;;;;4953114;29;20299;-89
2022/07/27 12:02:08;;;;;;;1.08;0.52;;;21.70;80.20;;;;;;4954024;29;20502;-89
2022/07/27 12:04:42;;;;;;;2.55;0.70;;;22.10;78.00;;;;;;4953770;29;20185;-89
2022/07/27 12:07:11;;;;;;;2.40;0.60;;;22.30;78.40;;;;;;4946012;28;20260;-89
2022/07/27 12:09:42;;;;;;;2.38;0.60;;;22.60;77.30;;;;;;4936440;29;20170;-89
2022/07/27 12:12:08;;;;;;;2.80;0.60;;;22.70;77.60;;;;;;4934290;29;20185;-89
2022/07/27 12:14:36;;;;;;;1.50;0.75;;;23.00;76.10;;;;;;4934275;29;20170;-89
2022/07/27 12:17:09;;;;;;;2.97;0.70;;;23.40;76.60;;;;;;4951794;29;20268;-89
2022/07/27 12:19:35;;;;;;;2.45;0.55;;;23.60;77.60;;;;;;4953362;29;20212;-90
2022/07/27 12:22:01;;;;;;;1.88;0.80;;;23.70;74.10;;;;;;4952135;28;20185;-90
2022/07/27 12:24:38;;;;;;;4.88;1.00;;;23.30;76.40;;;;;;4953136;29;20204;-89
2022/07/27 12:27:06;;;;;;;3.08;0.75;;;22.90;76.20;;;;;;4956093;28;20205;-89
2022/07/27 12:29:32;;;;;;;3.90;0.90;;;22.50;76.50;;;;;;4949000;29;20646;-89
2022/07/27 12:32:02;;;;;;;2.88;0.65;;;22.10;77.60;;;;;;4934345;29;20193;-91
2022/07/27 12:34:32;;;;;;;2.78;0.85;;;22.00;78.80;;;;;;4943998;29;20260;-89
2022/07/27 12:36:58;;;;;;;2.30;0.70;;;21.90;77.70;;;;;;4953105;28;20547;-89
2022/07/27 12:39:25;;;;;;;3.75;1.15;;;21.70;79.60;;;;;;4953609;29;20235;-88
2022/07/27 12:42:06;;;;;;;2.28;0.60;;;21.60;77.50;;;;;;4952560;29;20181;-89
2022/07/27 12:44:38;;;;;;;1.30;0.60;;;21.50;77.70;;;;;;4948024;29;20212;-88
2022/07/27 12:50:12;;;;;;;1.90;0.73;;;21.30;78.80;;;;;;4952800;29;20204;-89
2022/07/27 12:52:42;;;;;;;2.40;0.80;;;21.20;77.70;;;;;;4952221;29;20192;-90
2022/07/27 12:55:09;;;;;;;2.90;0.60;;;21.20;79.10;;;;;;4952160;28;20240;-89
2022/07/27 12:57:35;;;;;;;3.83;0.55;;;21.10;79.10;;;;;;4943597;29;20312;-87
2022/07/27 13:00:07;;;;;;;2.85;0.90;;;21.10;79.20;;;;;;4952995;29;20670;-89